createdAt,value
2022-08-18T00:02:03.637Z,10.82
2022-08-18T00:05:07.573Z,11.65
2022-08-18T00:08:12.719Z,11.35
2022-08-18T00:11:16.263Z,12.07
2022-08-18T00:14:22.993Z,11.70
2022-08-18T00:17:25.852Z,11.65
2022-08-18T00:20:28.703Z,11.05
2022-08-18T00:23:32.674Z,11.75
2022-08-18T00:26:37.092Z,11.98
2022-08-18T00:29:41.246Z,12.07
2022-08-18T00:32:46.265Z,11.45
2022-08-18T00:35:48.950Z,11.73
2022-08-18T00:38:52.072Z,13.40
2022-08-18T00:41:55.902Z,12.70
2022-08-18T00:45:02.649Z,12.80
2022-08-18T00:48:06.856Z,11.60
2022-08-18T00:51:18.501Z,12.55
2022-08-18T00:54:25.081Z,11.82
2022-08-18T00:57:28.113Z,11.55
2022-08-18T01:00:33.073Z,10.87
2022-08-18T01:03:40.109Z,11.45
2022-08-18T01:06:48.452Z,11.63
2022-08-18T01:09:52.863Z,11.18
2022-08-18T01:12:57.610Z,12.70
2022-08-18T01:16:23.973Z,10.97
2022-08-18T01:19:46.284Z,12.23
2022-08-18T01:22:59.251Z,11.43
2022-08-18T01:26:04.383Z,12.43
2022-08-18T01:29:11.882Z,11.13
2022-08-18T01:32:24.125Z,11.50
2022-08-18T01:35:28.354Z,11.75
2022-08-18T01:38:40.682Z,12.02
2022-08-18T01:41:43.346Z,11.77
2022-08-18T01:44:51.299Z,11.35
2022-08-18T01:47:54.533Z,12.00
2022-08-18T01:50:57.284Z,12.45
2022-08-18T01:54:01.714Z,11.20
2022-08-18T01:57:05.648Z,11.82
2022-08-18T02:00:10.144Z,12.02
2022-08-18T02:03:16.010Z,12.30
2022-08-18T02:06:32.193Z,12.10
2022-08-18T02:09:40.143Z,12.00
2022-08-18T02:12:43.149Z,12.52
2022-08-18T02:15:45.940Z,11.90
2022-08-18T02:18:49.035Z,12.77
2022-08-18T02:21:53.138Z,12.13
2022-08-18T02:24:58.234Z,11.38
2022-08-18T02:28:00.885Z,12.40
2022-08-18T02:31:06.450Z,12.60
2022-08-18T02:34:09.093Z,11.57
2022-08-18T02:37:15.278Z,11.63
2022-08-18T02:40:20.033Z,12.02
2022-08-18T02:43:22.858Z,11.85
2022-08-18T02:46:29.706Z,13.13
2022-08-18T02:49:33.307Z,11.97
2022-08-18T02:52:36.287Z,14.25
2022-08-18T02:55:41.444Z,12.00
2022-08-18T02:58:44.100Z,12.35
2022-08-18T03:01:51.491Z,13.48
2022-08-18T03:04:54.876Z,12.43
2022-08-18T03:07:57.553Z,12.15
2022-08-18T03:11:01.630Z,12.50
2022-08-18T03:14:05.545Z,12.90
2022-08-18T03:17:10.585Z,13.52
2022-08-18T03:20:14.014Z,13.13
2022-08-18T03:23:16.940Z,13.30
2022-08-18T03:26:22.789Z,14.10
2022-08-18T03:29:31.743Z,12.63
2022-08-18T03:32:34.903Z,12.73
2022-08-18T03:35:38.330Z,12.63
2022-08-18T03:38:43.174Z,12.93
2022-08-18T03:41:58.481Z,13.33
2022-08-18T03:45:13.079Z,12.32
2022-08-18T03:48:20.562Z,12.15
2022-08-18T03:51:26.155Z,13.20
2022-08-18T03:54:29.212Z,12.50
2022-08-18T03:57:34.432Z,12.50
2022-08-18T04:00:42.378Z,12.52
2022-08-18T04:03:45.864Z,12.73
2022-08-18T04:06:51.166Z,13.02
2022-08-18T04:09:53.899Z,12.93
2022-08-18T04:12:57.858Z,12.43
2022-08-18T04:16:00.542Z,13.63
2022-08-18T04:19:05.293Z,12.45
2022-08-18T04:22:07.893Z,13.30
2022-08-18T04:25:10.914Z,12.73
2022-08-18T04:28:14.965Z,13.83
2022-08-18T04:31:18.293Z,12.90
2022-08-18T04:34:22.757Z,13.10
2022-08-18T04:37:25.725Z,12.90
2022-08-18T04:40:29.499Z,13.30
2022-08-18T04:43:33.985Z,14.10
2022-08-18T04:46:40.741Z,13.80
2022-08-18T04:49:43.811Z,13.70
2022-08-18T04:53:04.031Z,13.68
2022-08-18T04:56:07.362Z,13.02
2022-08-18T04:59:13.357Z,14.33
2022-08-18T05:02:18.532Z,13.25
2022-08-18T05:05:21.651Z,12.93
2022-08-18T05:08:24.826Z,13.07
2022-08-18T05:11:30.110Z,13.25
2022-08-18T05:14:36.007Z,14.47
2022-08-18T05:17:39.670Z,13.30
2022-08-18T05:20:43.862Z,13.10
2022-08-18T05:23:50.208Z,15.02
2022-08-18T05:26:55.171Z,13.63
2022-08-18T05:29:59.314Z,13.70
2022-08-18T05:33:03.468Z,13.30
2022-08-18T05:36:13.553Z,13.20
2022-08-18T05:39:23.891Z,12.60
2022-08-18T05:42:29.910Z,12.90
2022-08-18T05:45:34.816Z,12.77
2022-08-18T05:48:43.699Z,12.93
2022-08-18T05:51:49.168Z,13.50
2022-08-18T05:55:25.428Z,13.15
2022-08-18T05:58:38.484Z,13.57
2022-08-18T06:01:47.772Z,13.53
2022-08-18T06:04:56.106Z,14.80
2022-08-18T06:08:01.193Z,13.05
2022-08-18T06:11:03.830Z,13.13
2022-08-18T06:14:06.943Z,14.63
2022-08-18T06:17:29.129Z,14.30
2022-08-18T06:20:44.363Z,14.95
2022-08-18T06:23:56.575Z,14.52
2022-08-18T06:27:11.074Z,13.48
2022-08-18T06:30:18.758Z,14.40
2022-08-18T06:33:40.465Z,14.93
2022-08-18T06:36:53.126Z,13.52
2022-08-18T06:39:57.171Z,14.48
2022-08-18T06:43:02.121Z,14.73
2022-08-18T06:46:10.746Z,13.63
2022-08-18T06:49:22.829Z,14.00
2022-08-18T06:52:30.079Z,12.82
2022-08-18T06:55:35.297Z,14.48
2022-08-18T06:58:37.952Z,14.63
2022-08-18T07:01:41.158Z,14.13
2022-08-18T07:05:01.108Z,15.27
2022-08-18T07:08:30.290Z,13.30
2022-08-18T07:11:34.371Z,14.88
2022-08-18T07:14:45.915Z,14.50
2022-08-18T07:17:50.202Z,13.75
2022-08-18T07:20:57.215Z,13.77
2022-08-18T07:24:23.866Z,13.65
2022-08-18T07:27:42.675Z,14.02
2022-08-18T07:31:06.368Z,13.27
2022-08-18T07:34:14.280Z,12.95
2022-08-18T07:37:26.482Z,15.30
2022-08-18T07:40:39.349Z,16.27
2022-08-18T07:43:54.470Z,15.60
2022-08-18T07:47:01.395Z,15.90
2022-08-18T07:50:27.034Z,15.50
2022-08-18T07:53:44.914Z,14.63
2022-08-18T07:57:19.211Z,17.17
2022-08-18T08:00:54.923Z,15.38
2022-08-18T08:03:59.375Z,16.20
2022-08-18T08:07:24.042Z,13.43
2022-08-18T08:10:37.592Z,14.73
2022-08-18T08:13:56.075Z,15.88
2022-08-18T08:17:08.268Z,15.20
2022-08-18T08:20:19.779Z,14.43
2022-08-18T08:23:29.974Z,17.02
2022-08-18T08:26:48.594Z,15.90
2022-08-18T08:30:01.357Z,15.35
2022-08-18T08:33:10.801Z,15.20
2022-08-18T08:36:19.723Z,15.10
2022-08-18T08:39:28.857Z,15.48
2022-08-18T08:42:41.018Z,14.20
2022-08-18T08:45:49.255Z,24.13
2022-08-18T08:49:00.740Z,18.00
2022-08-18T08:52:11.120Z,15.88
2022-08-18T08:55:19.085Z,15.10
2022-08-18T08:58:29.768Z,16.93
2022-08-18T09:01:39.078Z,14.95
2022-08-18T09:05:08.342Z,13.85
2022-08-18T09:08:28.745Z,13.98
2022-08-18T09:12:06.440Z,16.63
2022-08-18T09:15:28.376Z,16.50
2022-08-18T09:18:43.984Z,15.57
2022-08-18T09:21:53.234Z,18.33
2022-08-18T09:24:56.308Z,15.57
2022-08-18T09:28:11.423Z,15.30
2022-08-18T09:31:20.059Z,15.90
2022-08-18T09:34:41.372Z,15.20
2022-08-18T09:38:12.945Z,15.70
2022-08-18T09:41:34.102Z,15.88
2022-08-18T09:45:08.298Z,15.07
2022-08-18T09:48:31.728Z,14.83
2022-08-18T09:51:40.210Z,16.45
2022-08-18T09:54:52.620Z,15.27
2022-08-18T09:58:17.333Z,15.80
2022-08-18T10:01:40.701Z,16.90
2022-08-18T10:04:51.012Z,16.57
2022-08-18T10:08:21.406Z,14.52
2022-08-18T10:11:40.367Z,15.52
2022-08-18T10:15:32.800Z,16.42
2022-08-18T10:18:53.048Z,17.23
2022-08-18T10:22:07.431Z,14.23
2022-08-18T10:25:22.919Z,18.98
2022-08-18T10:28:54.803Z,17.15
2022-08-18T10:32:24.359Z,17.85
2022-08-18T10:35:59.066Z,15.75
2022-08-18T10:39:06.793Z,15.67
2022-08-18T10:42:19.405Z,14.60
2022-08-18T10:45:27.155Z,14.77
2022-08-18T10:48:33.108Z,14.75
2022-08-18T10:51:59.260Z,16.88
2022-08-18T10:55:48.187Z,15.27
2022-08-18T10:59:04.363Z,14.48
2022-08-18T11:02:20.197Z,13.60
2022-08-18T11:05:26.930Z,16.30
2022-08-18T11:08:43.535Z,16.27
2022-08-18T11:11:55.860Z,15.43
2022-08-18T11:15:22.096Z,14.38
2022-08-18T11:18:42.554Z,14.52
2022-08-18T11:21:51.110Z,20.55
2022-08-18T11:24:54.715Z,17.48
2022-08-18T11:28:00.663Z,14.23
2022-08-18T11:31:06.487Z,15.02
2022-08-18T11:34:18.456Z,16.23
2022-08-18T11:37:48.907Z,16.17
2022-08-18T11:41:11.985Z,13.77
2022-08-18T11:44:21.324Z,14.10
2022-08-18T11:47:27.980Z,12.65
2022-08-18T11:50:33.839Z,14.75
2022-08-18T11:53:42.799Z,11.37
2022-08-18T11:56:47.798Z,16.03
2022-08-18T12:00:00.396Z,14.63
2022-08-18T12:03:04.829Z,13.80
2022-08-18T12:06:19.877Z,15.80
2022-08-18T12:16:32.017Z,12.02
2022-08-18T12:19:35.023Z,11.15
2022-08-18T12:22:39.933Z,10.60
2022-08-18T12:25:43.311Z,10.33
2022-08-18T12:28:46.147Z,11.60
2022-08-18T12:31:52.433Z,13.57
2022-08-18T12:38:21.156Z,10.65
2022-08-18T12:41:24.181Z,11.03
2022-08-18T12:44:27.486Z,13.90
2022-08-18T12:47:32.163Z,11.98
2022-08-18T12:50:41.158Z,10.23
2022-08-18T12:53:59.171Z,12.18
2022-08-18T12:57:04.630Z,10.47
2022-08-18T13:03:35.102Z,10.88
2022-08-18T13:06:50.324Z,10.63
2022-08-18T13:10:03.625Z,10.05
2022-08-18T13:13:06.964Z,10.03
2022-08-18T13:16:16.522Z,10.40
2022-08-18T13:19:36.989Z,9.93
2022-08-18T13:22:41.160Z,10.38
2022-08-18T13:25:44.235Z,10.32
2022-08-18T13:28:56.601Z,10.43
2022-08-18T13:32:00.526Z,10.47
2022-08-18T13:35:09.120Z,9.63
2022-08-18T13:38:22.002Z,12.15
2022-08-18T13:41:28.760Z,11.90
2022-08-18T13:44:35.130Z,10.30
2022-08-18T13:47:38.854Z,10.07
2022-08-18T13:50:42.825Z,9.45
2022-08-18T13:54:17.438Z,11.90
2022-08-18T13:57:11.198Z,11.30
2022-08-18T14:00:18.379Z,10.50
2022-08-18T14:03:42.863Z,11.37
2022-08-18T14:06:56.120Z,10.52
2022-08-18T14:10:03.654Z,11.45
2022-08-18T14:13:11.961Z,11.43
2022-08-18T14:16:26.642Z,14.23
2022-08-18T14:19:47.955Z,12.27
2022-08-18T14:23:12.142Z,12.00
2022-08-18T14:26:32.582Z,11.43
2022-08-18T14:29:45.808Z,11.77
2022-08-18T14:32:50.717Z,14.00
2022-08-18T14:36:06.711Z,10.30
2022-08-18T14:39:13.484Z,10.40
2022-08-18T14:42:18.880Z,12.45
2022-08-18T14:45:31.280Z,12.23
2022-08-18T14:48:37.995Z,11.03
2022-08-18T14:51:45.186Z,11.73
2022-08-18T14:54:51.261Z,10.52
2022-08-18T14:57:54.409Z,11.70
2022-08-18T15:00:58.929Z,11.25
2022-08-18T15:04:18.466Z,12.30
2022-08-18T15:07:23.739Z,11.77
2022-08-18T15:10:28.415Z,11.63
2022-08-18T15:13:32.134Z,9.18
2022-08-18T15:16:38.613Z,10.25
2022-08-18T15:20:00.064Z,14.23
2022-08-18T15:23:24.794Z,10.93
2022-08-18T15:26:32.617Z,8.93
2022-08-18T15:29:37.315Z,8.60
2022-08-18T15:32:45.555Z,9.10
2022-08-18T15:35:50.520Z,8.13
2022-08-18T15:38:53.796Z,9.67
2022-08-18T15:41:58.475Z,8.85
2022-08-18T15:45:11.675Z,9.30
2022-08-18T15:48:17.902Z,7.82
2022-08-18T15:51:20.635Z,9.63
2022-08-18T15:54:23.329Z,8.40
2022-08-18T15:57:39.031Z,7.93
2022-08-18T16:00:48.776Z,7.80
2022-08-18T16:03:55.504Z,7.60
2022-08-18T16:06:58.363Z,8.43
2022-08-18T16:10:02.310Z,8.07
2022-08-18T16:13:06.967Z,8.13
2022-08-18T16:16:12.238Z,8.23
2022-08-18T16:19:15.044Z,9.38
2022-08-18T16:22:17.882Z,7.80
2022-08-18T16:25:21.685Z,7.43
2022-08-18T16:28:34.492Z,8.27
2022-08-18T16:31:37.742Z,7.28
2022-08-18T16:34:41.527Z,8.43
2022-08-18T16:37:44.327Z,7.77
2022-08-18T16:40:47.515Z,8.43
2022-08-18T16:43:51.553Z,7.80
2022-08-18T16:46:54.406Z,10.18
2022-08-18T16:49:58.783Z,8.98
2022-08-18T16:53:01.846Z,9.80
2022-08-18T16:56:04.991Z,10.47
2022-08-18T17:02:57.170Z,10.55
2022-08-18T17:06:01.135Z,10.83
2022-08-18T17:09:10.099Z,10.32
2022-08-18T17:12:12.989Z,9.27
2022-08-18T17:15:17.291Z,10.17
2022-08-18T17:18:20.928Z,10.07
2022-08-18T17:21:27.017Z,10.57
2022-08-18T17:24:31.824Z,10.30
2022-08-18T17:27:37.622Z,9.90
2022-08-18T17:30:47.948Z,10.80
2022-08-18T17:33:50.763Z,12.93
2022-08-18T17:36:56.863Z,13.25
2022-08-18T17:40:04.859Z,9.98
2022-08-18T17:43:12.661Z,9.63
2022-08-18T17:46:27.330Z,10.10
2022-08-18T17:50:26.348Z,11.68
2022-08-18T17:53:18.819Z,11.10
2022-08-18T17:56:35.614Z,9.68
2022-08-18T17:59:52.030Z,9.40
2022-08-18T18:02:56.292Z,9.43
2022-08-18T18:06:04.128Z,10.30
2022-08-18T18:09:09.711Z,9.00
2022-08-18T18:12:23.671Z,10.07
2022-08-18T18:15:33.167Z,9.50
2022-08-18T18:18:42.746Z,10.83
2022-08-18T18:21:53.583Z,10.30
2022-08-18T18:25:06.681Z,8.98
2022-08-18T18:28:26.838Z,9.20
2022-08-18T18:31:32.928Z,8.63
2022-08-18T18:34:39.794Z,9.30
2022-08-18T18:37:52.260Z,8.80
2022-08-18T18:40:58.995Z,9.60
2022-08-18T18:44:09.072Z,9.55
2022-08-18T18:47:23.682Z,9.00
2022-08-18T18:50:36.920Z,9.83
2022-08-18T18:53:49.822Z,9.98
2022-08-18T18:56:56.435Z,10.25
2022-08-18T19:00:11.617Z,10.20
2022-08-18T19:03:21.095Z,11.23
2022-08-18T19:06:32.059Z,10.33
2022-08-18T19:09:42.165Z,9.38
2022-08-18T19:12:53.974Z,10.88
2022-08-18T19:16:01.107Z,11.07
2022-08-18T19:19:38.365Z,11.15
2022-08-18T19:22:41.130Z,10.17
2022-08-18T19:25:47.855Z,10.88
2022-08-18T19:29:12.886Z,8.93
2022-08-18T19:32:21.398Z,10.27
2022-08-18T19:35:35.504Z,9.85
2022-08-18T19:38:45.875Z,9.87
2022-08-18T19:41:56.528Z,9.32
2022-08-18T19:45:16.309Z,11.70
2022-08-18T19:48:30.868Z,9.40
2022-08-18T19:51:35.821Z,9.63
2022-08-18T19:54:55.372Z,10.67
2022-08-18T19:58:22.005Z,10.68
2022-08-18T20:01:36.771Z,9.75
2022-08-18T20:05:04.456Z,9.77
2022-08-18T20:08:30.627Z,11.00
2022-08-18T20:11:48.350Z,9.70
2022-08-18T20:15:02.763Z,10.20
2022-08-18T20:18:20.005Z,9.35
2022-08-18T20:21:39.811Z,9.82
2022-08-18T20:24:50.844Z,9.30
2022-08-18T20:28:32.752Z,10.50
2022-08-18T20:31:51.533Z,9.57
2022-08-18T20:34:54.150Z,10.15
2022-08-18T20:38:14.761Z,10.05
2022-08-18T20:41:43.568Z,10.70
2022-08-18T20:44:58.734Z,9.85
2022-08-18T20:48:14.056Z,8.57
2022-08-18T20:51:25.166Z,10.00
2022-08-18T20:54:39.944Z,9.13
2022-08-18T20:58:05.462Z,10.13
2022-08-18T21:01:13.919Z,9.05
2022-08-18T21:04:16.589Z,9.20
2022-08-18T21:07:34.197Z,10.25
2022-08-18T21:10:48.830Z,9.27
2022-08-18T21:13:53.677Z,10.77
2022-08-18T21:16:58.880Z,9.43
2022-08-18T21:20:06.509Z,9.52
2022-08-18T21:23:12.183Z,9.32
2022-08-18T21:26:17.340Z,9.15
2022-08-18T21:29:20.108Z,9.83
2022-08-18T21:32:29.301Z,8.80
2022-08-18T21:35:35.237Z,10.55
2022-08-18T21:38:37.873Z,10.02
2022-08-18T21:41:42.797Z,9.55
2022-08-18T21:44:47.681Z,9.27
2022-08-18T21:47:56.621Z,9.15
2022-08-18T21:51:02.043Z,9.85
2022-08-18T21:54:05.079Z,10.63
2022-08-18T21:57:23.417Z,9.70
2022-08-18T22:00:28.424Z,10.17
2022-08-18T22:03:33.910Z,8.20
2022-08-18T22:06:40.215Z,9.77
2022-08-18T22:10:16.816Z,9.57
2022-08-18T22:13:39.558Z,10.25
2022-08-18T22:16:42.565Z,11.63
2022-08-18T22:19:46.525Z,9.75
2022-08-18T22:23:07.226Z,9.85
2022-08-18T22:26:13.141Z,10.57
2022-08-18T22:29:26.383Z,9.55
2022-08-18T22:32:29.016Z,9.75
2022-08-18T22:35:33.234Z,10.57
2022-08-18T22:38:36.340Z,10.00
2022-08-18T22:41:39.890Z,10.37
2022-08-18T22:44:43.589Z,10.02
2022-08-18T22:47:46.378Z,9.65
2022-08-18T22:50:51.540Z,10.98
2022-08-18T22:53:55.884Z,11.15
2022-08-18T22:56:59.281Z,10.10
2022-08-18T23:00:03.825Z,9.82
2022-08-18T23:03:06.486Z,9.73
2022-08-18T23:06:11.257Z,10.20
2022-08-18T23:09:13.881Z,10.65
2022-08-18T23:12:16.707Z,11.00
2022-08-18T23:15:19.636Z,10.65
2022-08-18T23:18:24.787Z,9.82
2022-08-18T23:21:34.116Z,11.68
2022-08-18T23:24:38.301Z,11.27
2022-08-18T23:27:41.367Z,11.20
2022-08-18T23:30:44.873Z,12.13
2022-08-18T23:33:47.507Z,12.00
2022-08-18T23:36:56.544Z,11.77
2022-08-18T23:39:59.319Z,11.18
2022-08-18T23:43:02.772Z,10.90
2022-08-18T23:46:06.646Z,12.68
2022-08-18T23:49:10.841Z,11.68
2022-08-18T23:52:15.090Z,12.02
2022-08-18T23:55:17.951Z,11.93
2022-08-18T23:58:20.890Z,11.23
